Selvin, Indiana
Current Conditions -  °F | °C
As of 11:35 AM on Tuesday 21 Oct 2014 (Local Time) from KHNB Reporting Station
Broken Clouds Broken Clouds  
Wind Chill: 59°   Ceiling: 5000
Heat Index: 59°   Visibility: 10mi
Dew Point: 45°   Wind: 13mph
Humidity: 59%   Direction: 50°NE
Pressure: 30.1"   Gusts: 16mph
Location:  38.17°N, 87.0282°W
Report Text: KHNB 211635Z AUTO 05011G14KT 10SM BKN050 15/07 A3010 RMK AO1
Loading
Personal Weather Stations






























Interactive Weather Map
Tropical Storm Tracking
New forecast layout! Learn more

10-Day Weather Forecast

Advertisements
Track Severe Weather on mobile